sensor_id;sensor_type;location;lat;lon;timestamp;P1;durP1;ratioP1;P2;durP2;ratioP2
60896;SDS011;46749;32.932;-117.130;2023-02-28T00:00:22;2.17;;;0.60;;
60896;SDS011;46749;32.932;-117.130;2023-02-28T00:02:49;0.98;;;0.45;;
60896;SDS011;46749;32.932;-117.130;2023-02-28T00:05:19;1.77;;;0.55;;
60896;SDS011;46749;32.932;-117.130;2023-02-28T00:07:47;1.35;;;0.40;;
60896;SDS011;46749;32.932;-117.130;2023-02-28T00:10:18;2.38;;;0.47;;
60896;SDS011;46749;32.932;-117.130;2023-02-28T00:12:48;0.93;;;0.32;;
60896;SDS011;46749;32.932;-117.130;2023-02-28T00:15:15;1.83;;;0.50;;
60896;SDS011;46749;32.932;-117.130;2023-02-28T00:17:42;0.60;;;0.50;;
60896;SDS011;46749;32.932;-117.130;2023-02-28T00:20:09;1.52;;;0.50;;
60896;SDS011;46749;32.932;-117.130;2023-02-28T00:22:37;1.90;;;0.63;;
60896;SDS011;46749;32.932;-117.130;2023-02-28T00:25:05;1.23;;;0.55;;
60896;SDS011;46749;32.932;-117.130;2023-02-28T00:27:33;1.98;;;0.50;;
60896;SDS011;46749;32.932;-117.130;2023-02-28T00:30:00;1.75;;;0.60;;
60896;SDS011;46749;32.932;-117.130;2023-02-28T00:32:27;2.38;;;0.50;;
60896;SDS011;46749;32.932;-117.130;2023-02-28T00:34:53;1.17;;;0.45;;
60896;SDS011;46749;32.932;-117.130;2023-02-28T00:37:19;1.77;;;0.40;;
60896;SDS011;46749;32.932;-117.130;2023-02-28T00:39:45;2.17;;;0.45;;
60896;SDS011;46749;32.932;-117.130;2023-02-28T00:42:11;4.85;;;0.52;;
60896;SDS011;46749;32.932;-117.130;2023-02-28T00:44:37;2.83;;;0.40;;
60896;SDS011;46749;32.932;-117.130;2023-02-28T00:47:04;1.10;;;0.68;;
60896;SDS011;46749;32.932;-117.130;2023-02-28T00:49:30;2.35;;;0.52;;
60896;SDS011;46749;32.932;-117.130;2023-02-28T00:51:56;3.08;;;0.50;;
60896;SDS011;46749;32.932;-117.130;2023-02-28T00:54:23;1.83;;;0.40;;
60896;SDS011;46749;32.932;-117.130;2023-02-28T00:56:50;1.27;;;0.47;;
60896;SDS011;46749;32.932;-117.130;2023-02-28T00:59:16;1.05;;;0.68;;
60896;SDS011;46749;32.932;-117.130;2023-02-28T01:01:43;3.75;;;0.60;;
60896;SDS011;46749;32.932;-117.130;2023-02-28T01:04:11;4.97;;;0.50;;
60896;SDS011;46749;32.932;-117.130;2023-02-28T01:06:38;14.68;;;1.00;;
60896;SDS011;46749;32.932;-117.130;2023-02-28T01:09:05;2.33;;;0.40;;
60896;SDS011;46749;32.932;-117.130;2023-02-28T01:11:33;1.52;;;0.70;;
60896;SDS011;46749;32.932;-117.130;2023-02-28T01:13:59;1.33;;;0.40;;
60896;SDS011;46749;32.932;-117.130;2023-02-28T01:16:26;1.17;;;0.40;;
60896;SDS011;46749;32.932;-117.130;2023-02-28T01:18:53;1.95;;;0.50;;
60896;SDS011;46749;32.932;-117.130;2023-02-28T01:21:20;1.48;;;0.60;;
60896;SDS011;46749;32.932;-117.130;2023-02-28T01:23:47;3.20;;;0.43;;
60896;SDS011;46749;32.932;-117.130;2023-02-28T01:26:15;1.00;;;0.30;;
60896;SDS011;46749;32.932;-117.130;2023-02-28T01:28:46;2.35;;;0.50;;
60896;SDS011;46749;32.932;-117.130;2023-02-28T01:31:13;1.67;;;0.60;;
60896;SDS011;46749;32.932;-117.130;2023-02-28T01:33:40;2.13;;;0.47;;
60896;SDS011;46749;32.932;-117.130;2023-02-28T01:36:09;0.98;;;0.40;;
60896;SDS011;46749;32.932;-117.130;2023-02-28T01:38:40;1.38;;;0.40;;
60896;SDS011;46749;32.932;-117.130;2023-02-28T01:41:08;0.98;;;0.35;;
60896;SDS011;46749;32.932;-117.130;2023-02-28T01:46:09;1.55;;;0.47;;
60896;SDS011;46749;32.932;-117.130;2023-02-28T01:48:57;1.08;;;0.45;;
60896;SDS011;46749;32.932;-117.130;2023-02-28T01:54:16;2.55;;;0.60;;
60896;SDS011;46749;32.932;-117.130;2023-02-28T01:56:52;2.30;;;0.57;;
60896;SDS011;46749;32.932;-117.130;2023-02-28T01:59:26;2.22;;;0.60;;
60896;SDS011;46749;32.932;-117.130;2023-02-28T02:02:14;1.63;;;0.40;;
60896;SDS011;46749;32.932;-117.130;2023-02-28T02:04:46;3.03;;;0.40;;
60896;SDS011;46749;32.932;-117.130;2023-02-28T02:07:16;1.98;;;0.63;;
60896;SDS011;46749;32.932;-117.130;2023-02-28T02:09:42;1.15;;;0.73;;
60896;SDS011;46749;32.932;-117.130;2023-02-28T02:12:52;2.00;;;0.57;;
60896;SDS011;46749;32.932;-117.130;2023-02-28T02:18:34;0.60;;;0.43;;
60896;SDS011;46749;32.932;-117.130;2023-02-28T02:23:44;1.67;;;0.30;;
60896;SDS011;46749;32.932;-117.130;2023-02-28T02:38:49;1.30;;;0.40;;
60896;SDS011;46749;32.932;-117.130;2023-02-28T02:43:51;0.35;;;0.20;;
60896;SDS011;46749;32.932;-117.130;2023-02-28T02:46:55;0.50;;;0.30;;
60896;SDS011;46749;32.932;-117.130;2023-02-28T02:49:20;1.38;;;0.30;;
60896;SDS011;46749;32.932;-117.130;2023-02-28T02:51:53;1.45;;;0.50;;
60896;SDS011;46749;32.932;-117.130;2023-02-28T02:54:43;1.23;;;0.45;;
60896;SDS011;46749;32.932;-117.130;2023-02-28T02:57:32;1.52;;;0.30;;
60896;SDS011;46749;32.932;-117.130;2023-02-28T03:00:13;0.88;;;0.22;;
60896;SDS011;46749;32.932;-117.130;2023-02-28T03:02:46;0.85;;;0.50;;
60896;SDS011;46749;32.932;-117.130;2023-02-28T03:05:17;1.17;;;0.35;;
60896;SDS011;46749;32.932;-117.130;2023-02-28T03:07:49;1.05;;;0.30;;
60896;SDS011;46749;32.932;-117.130;2023-02-28T03:10:28;0.63;;;0.30;;
60896;SDS011;46749;32.932;-117.130;2023-02-28T03:13:03;1.17;;;0.30;;
60896;SDS011;46749;32.932;-117.130;2023-02-28T03:26:58;0.57;;;0.28;;
60896;SDS011;46749;32.932;-117.130;2023-02-28T03:29:58;0.75;;;0.30;;
60896;SDS011;46749;32.932;-117.130;2023-02-28T03:32:35;1.40;;;0.30;;
60896;SDS011;46749;32.932;-117.130;2023-02-28T03:35:09;0.73;;;0.30;;
60896;SDS011;46749;32.932;-117.130;2023-02-28T03:37:47;0.38;;;0.30;;
60896;SDS011;46749;32.932;-117.130;2023-02-28T03:40:19;0.85;;;0.20;;
60896;SDS011;46749;32.932;-117.130;2023-02-28T03:42:51;1.15;;;0.40;;
60896;SDS011;46749;32.932;-117.130;2023-02-28T03:45:25;1.27;;;0.30;;
60896;SDS011;46749;32.932;-117.130;2023-02-28T03:50:36;0.17;;;0.17;;
60896;SDS011;46749;32.932;-117.130;2023-02-28T03:59:13;0.73;;;0.30;;
60896;SDS011;46749;32.932;-117.130;2023-02-28T04:01:47;0.50;;;0.30;;
60896;SDS011;46749;32.932;-117.130;2023-02-28T04:04:15;0.70;;;0.30;;
60896;SDS011;46749;32.932;-117.130;2023-02-28T04:06:42;0.43;;;0.10;;
60896;SDS011;46749;32.932;-117.130;2023-02-28T04:09:10;0.75;;;0.30;;
60896;SDS011;46749;32.932;-117.130;2023-02-28T04:11:40;0.22;;;0.20;;
60896;SDS011;46749;32.932;-117.130;2023-02-28T04:14:12;0.85;;;0.20;;
60896;SDS011;46749;32.932;-117.130;2023-02-28T04:16:39;1.08;;;0.30;;
60896;SDS011;46749;32.932;-117.130;2023-02-28T04:19:07;0.52;;;0.20;;
60896;SDS011;46749;32.932;-117.130;2023-02-28T04:21:36;0.77;;;0.30;;
60896;SDS011;46749;32.932;-117.130;2023-02-28T04:24:10;0.65;;;0.30;;
60896;SDS011;46749;32.932;-117.130;2023-02-28T04:26:42;0.43;;;0.20;;
60896;SDS011;46749;32.932;-117.130;2023-02-28T04:29:11;0.22;;;0.20;;
60896;SDS011;46749;32.932;-117.130;2023-02-28T04:31:39;1.02;;;0.20;;
60896;SDS011;46749;32.932;-117.130;2023-02-28T04:34:05;0.50;;;0.20;;
60896;SDS011;46749;32.932;-117.130;2023-02-28T04:36:32;0.20;;;0.20;;
60896;SDS011;46749;32.932;-117.130;2023-02-28T04:38:58;0.50;;;0.20;;
60896;SDS011;46749;32.932;-117.130;2023-02-28T04:41:24;0.90;;;0.30;;
60896;SDS011;46749;32.932;-117.130;2023-02-28T04:43:51;0.70;;;0.30;;
60896;SDS011;46749;32.932;-117.130;2023-02-28T04:46:18;0.52;;;0.30;;
60896;SDS011;46749;32.932;-117.130;2023-02-28T04:48:45;1.13;;;0.10;;
60896;SDS011;46749;32.932;-117.130;2023-02-28T04:51:12;1.48;;;0.20;;
60896;SDS011;46749;32.932;-117.130;2023-02-28T04:53:39;0.57;;;0.20;;
60896;SDS011;46749;32.932;-117.130;2023-02-28T04:56:08;1.15;;;0.60;;
60896;SDS011;46749;32.932;-117.130;2023-02-28T04:58:37;1.05;;;0.25;;
60896;SDS011;46749;32.932;-117.130;2023-02-28T05:01:26;2.67;;;0.60;;
60896;SDS011;46749;32.932;-117.130;2023-02-28T05:03:56;0.50;;;0.22;;
60896;SDS011;46749;32.932;-117.130;2023-02-28T05:06:24;1.08;;;0.43;;
60896;SDS011;46749;32.932;-117.130;2023-02-28T05:08:52;0.45;;;0.20;;
60896;SDS011;46749;32.932;-117.130;2023-02-28T05:11:23;0.82;;;0.22;;
60896;SDS011;46749;32.932;-117.130;2023-02-28T05:13:51;1.50;;;0.25;;
60896;SDS011;46749;32.932;-117.130;2023-02-28T05:16:19;0.82;;;0.25;;
60896;SDS011;46749;32.932;-117.130;2023-02-28T05:18:45;1.92;;;0.30;;
60896;SDS011;46749;32.932;-117.130;2023-02-28T05:23:52;0.93;;;0.22;;
60896;SDS011;46749;32.932;-117.130;2023-02-28T05:26:20;1.10;;;0.40;;
60896;SDS011;46749;32.932;-117.130;2023-02-28T05:28:46;0.68;;;0.30;;
60896;SDS011;46749;32.932;-117.130;2023-02-28T05:31:12;1.13;;;0.47;;
60896;SDS011;46749;32.932;-117.130;2023-02-28T05:33:39;1.15;;;0.43;;
60896;SDS011;46749;32.932;-117.130;2023-02-28T05:36:06;0.80;;;0.55;;
60896;SDS011;46749;32.932;-117.130;2023-02-28T05:38:32;0.88;;;0.40;;
60896;SDS011;46749;32.932;-117.130;2023-02-28T05:40:59;0.90;;;0.40;;
60896;SDS011;46749;32.932;-117.130;2023-02-28T05:43:25;1.85;;;0.50;;
60896;SDS011;46749;32.932;-117.130;2023-02-28T05:45:51;1.55;;;0.50;;
60896;SDS011;46749;32.932;-117.130;2023-02-28T05:48:17;0.93;;;0.40;;
60896;SDS011;46749;32.932;-117.130;2023-02-28T05:50:44;1.63;;;0.50;;
60896;SDS011;46749;32.932;-117.130;2023-02-28T05:53:11;0.68;;;0.40;;
60896;SDS011;46749;32.932;-117.130;2023-02-28T05:55:37;1.73;;;0.50;;
60896;SDS011;46749;32.932;-117.130;2023-02-28T05:58:03;1.15;;;0.45;;
60896;SDS011;46749;32.932;-117.130;2023-02-28T06:00:30;0.75;;;0.43;;
60896;SDS011;46749;32.932;-117.130;2023-02-28T06:02:56;0.88;;;0.40;;
60896;SDS011;46749;32.932;-117.130;2023-02-28T06:05:25;1.20;;;0.50;;
60896;SDS011;46749;32.932;-117.130;2023-02-28T06:07:51;2.08;;;0.63;;
60896;SDS011;46749;32.932;-117.130;2023-02-28T06:10:17;0.70;;;0.38;;
60896;SDS011;46749;32.932;-117.130;2023-02-28T06:12:44;1.25;;;0.50;;
60896;SDS011;46749;32.932;-117.130;2023-02-28T06:15:14;2.05;;;0.30;;
60896;SDS011;46749;32.932;-117.130;2023-02-28T06:17:42;1.67;;;0.40;;
60896;SDS011;46749;32.932;-117.130;2023-02-28T06:20:09;2.28;;;0.52;;
60896;SDS011;46749;32.932;-117.130;2023-02-28T06:22:38;0.88;;;0.45;;
60896;SDS011;46749;32.932;-117.130;2023-02-28T06:25:05;0.68;;;0.43;;
60896;SDS011;46749;32.932;-117.130;2023-02-28T06:27:33;1.58;;;0.50;;
60896;SDS011;46749;32.932;-117.130;2023-02-28T06:30:00;1.67;;;0.50;;
60896;SDS011;46749;32.932;-117.130;2023-02-28T06:32:26;2.83;;;0.40;;
60896;SDS011;46749;32.932;-117.130;2023-02-28T06:34:54;1.17;;;0.40;;
60896;SDS011;46749;32.932;-117.130;2023-02-28T06:37:22;2.75;;;0.50;;
60896;SDS011;46749;32.932;-117.130;2023-02-28T06:39:51;1.38;;;0.70;;
60896;SDS011;46749;32.932;-117.130;2023-02-28T06:42:17;0.73;;;0.38;;
60896;SDS011;46749;32.932;-117.130;2023-02-28T06:44:44;2.47;;;0.30;;
60896;SDS011;46749;32.932;-117.130;2023-02-28T06:47:10;0.65;;;0.28;;
60896;SDS011;46749;32.932;-117.130;2023-02-28T06:49:36;1.17;;;0.40;;
60896;SDS011;46749;32.932;-117.130;2023-02-28T06:52:04;1.35;;;0.38;;
60896;SDS011;46749;32.932;-117.130;2023-02-28T06:54:30;1.98;;;0.40;;
60896;SDS011;46749;32.932;-117.130;2023-02-28T06:56:57;1.90;;;0.65;;
60896;SDS011;46749;32.932;-117.130;2023-02-28T06:59:23;0.63;;;0.32;;
60896;SDS011;46749;32.932;-117.130;2023-02-28T07:01:50;1.15;;;0.50;;
60896;SDS011;46749;32.932;-117.130;2023-02-28T07:04:16;2.28;;;0.77;;
60896;SDS011;46749;32.932;-117.130;2023-02-28T07:06:42;1.67;;;0.30;;
60896;SDS011;46749;32.932;-117.130;2023-02-28T07:09:08;0.73;;;0.40;;
60896;SDS011;46749;32.932;-117.130;2023-02-28T07:11:35;1.40;;;0.50;;
60896;SDS011;46749;32.932;-117.130;2023-02-28T07:14:02;1.55;;;0.40;;
60896;SDS011;46749;32.932;-117.130;2023-02-28T07:16:28;2.25;;;0.65;;
60896;SDS011;46749;32.932;-117.130;2023-02-28T07:18:54;1.80;;;0.32;;
60896;SDS011;46749;32.932;-117.130;2023-02-28T07:21:21;1.48;;;0.60;;
60896;SDS011;46749;32.932;-117.130;2023-02-28T07:23:47;1.73;;;0.47;;
60896;SDS011;46749;32.932;-117.130;2023-02-28T07:26:15;1.30;;;0.40;;
60896;SDS011;46749;32.932;-117.130;2023-02-28T07:28:43;0.60;;;0.40;;
60896;SDS011;46749;32.932;-117.130;2023-02-28T07:31:11;0.85;;;0.35;;
60896;SDS011;46749;32.932;-117.130;2023-02-28T07:33:41;1.25;;;0.50;;
60896;SDS011;46749;32.932;-117.130;2023-02-28T07:36:17;1.30;;;0.43;;
60896;SDS011;46749;32.932;-117.130;2023-02-28T07:38:47;0.82;;;0.50;;
60896;SDS011;46749;32.932;-117.130;2023-02-28T07:41:19;1.15;;;0.38;;
60896;SDS011;46749;32.932;-117.130;2023-02-28T07:43:47;2.75;;;0.50;;
60896;SDS011;46749;32.932;-117.130;2023-02-28T07:46:14;1.38;;;0.68;;
60896;SDS011;46749;32.932;-117.130;2023-02-28T07:48:42;1.80;;;0.60;;
60896;SDS011;46749;32.932;-117.130;2023-02-28T07:51:09;2.55;;;0.40;;
60896;SDS011;46749;32.932;-117.130;2023-02-28T07:53:35;1.95;;;0.60;;
60896;SDS011;46749;32.932;-117.130;2023-02-28T07:56:02;3.15;;;0.88;;
60896;SDS011;46749;32.932;-117.130;2023-02-28T07:58:29;1.77;;;0.50;;
60896;SDS011;46749;32.932;-117.130;2023-02-28T08:00:56;1.48;;;0.73;;
60896;SDS011;46749;32.932;-117.130;2023-02-28T08:03:23;2.25;;;0.50;;
60896;SDS011;46749;32.932;-117.130;2023-02-28T08:05:50;1.98;;;0.47;;
60896;SDS011;46749;32.932;-117.130;2023-02-28T08:08:17;0.88;;;0.40;;
60896;SDS011;46749;32.932;-117.130;2023-02-28T08:10:44;0.85;;;0.45;;
60896;SDS011;46749;32.932;-117.130;2023-02-28T08:13:10;0.52;;;0.35;;
60896;SDS011;46749;32.932;-117.130;2023-02-28T08:15:36;0.90;;;0.57;;
60896;SDS011;46749;32.932;-117.130;2023-02-28T08:18:02;1.40;;;0.60;;
60896;SDS011;46749;32.932;-117.130;2023-02-28T08:20:29;0.82;;;0.45;;
60896;SDS011;46749;32.932;-117.130;2023-02-28T08:22:55;1.83;;;0.55;;
60896;SDS011;46749;32.932;-117.130;2023-02-28T08:25:22;1.80;;;0.73;;
60896;SDS011;46749;32.932;-117.130;2023-02-28T08:27:50;1.30;;;0.45;;
60896;SDS011;46749;32.932;-117.130;2023-02-28T08:30:17;1.00;;;0.55;;
60896;SDS011;46749;32.932;-117.130;2023-02-28T08:32:43;3.28;;;0.63;;
60896;SDS011;46749;32.932;-117.130;2023-02-28T08:35:09;2.05;;;0.50;;
60896;SDS011;46749;32.932;-117.130;2023-02-28T08:37:36;1.33;;;0.40;;
60896;SDS011;46749;32.932;-117.130;2023-02-28T08:40:02;1.02;;;0.52;;
60896;SDS011;46749;32.932;-117.130;2023-02-28T08:42:29;0.85;;;0.38;;
60896;SDS011;46749;32.932;-117.130;2023-02-28T08:44:55;1.52;;;0.47;;
60896;SDS011;46749;32.932;-117.130;2023-02-28T08:47:21;1.45;;;0.55;;
60896;SDS011;46749;32.932;-117.130;2023-02-28T08:49:47;2.60;;;0.60;;
60896;SDS011;46749;32.932;-117.130;2023-02-28T08:52:14;1.20;;;0.40;;
60896;SDS011;46749;32.932;-117.130;2023-02-28T08:54:40;1.15;;;0.40;;
60896;SDS011;46749;32.932;-117.130;2023-02-28T08:57:06;0.85;;;0.30;;
60896;SDS011;46749;32.932;-117.130;2023-02-28T08:59:33;1.10;;;0.50;;
60896;SDS011;46749;32.932;-117.130;2023-02-28T09:01:59;0.60;;;0.30;;
60896;SDS011;46749;32.932;-117.130;2023-02-28T09:04:25;2.58;;;0.50;;
60896;SDS011;46749;32.932;-117.130;2023-02-28T09:06:51;2.50;;;0.50;;
60896;SDS011;46749;32.932;-117.130;2023-02-28T09:09:17;1.88;;;0.43;;
60896;SDS011;46749;32.932;-117.130;2023-02-28T09:11:44;3.35;;;0.60;;
60896;SDS011;46749;32.932;-117.130;2023-02-28T09:14:10;0.88;;;0.40;;
60896;SDS011;46749;32.932;-117.130;2023-02-28T09:16:36;0.82;;;0.40;;
60896;SDS011;46749;32.932;-117.130;2023-02-28T09:19:03;1.95;;;0.80;;
60896;SDS011;46749;32.932;-117.130;2023-02-28T09:21:29;1.33;;;0.50;;
60896;SDS011;46749;32.932;-117.130;2023-02-28T09:23:55;1.45;;;0.60;;
60896;SDS011;46749;32.932;-117.130;2023-02-28T09:26:23;1.25;;;0.57;;
60896;SDS011;46749;32.932;-117.130;2023-02-28T09:28:51;2.63;;;0.50;;
60896;SDS011;46749;32.932;-117.130;2023-02-28T09:31:23;0.68;;;0.35;;
60896;SDS011;46749;32.932;-117.130;2023-02-28T09:33:53;2.28;;;0.55;;
60896;SDS011;46749;32.932;-117.130;2023-02-28T09:36:21;1.33;;;0.50;;
60896;SDS011;46749;32.932;-117.130;2023-02-28T09:38:49;1.25;;;0.60;;
60896;SDS011;46749;32.932;-117.130;2023-02-28T09:41:21;1.17;;;0.63;;
60896;SDS011;46749;32.932;-117.130;2023-02-28T09:43:59;2.28;;;0.85;;
60896;SDS011;46749;32.932;-117.130;2023-02-28T09:49:19;2.65;;;0.95;;
60896;SDS011;46749;32.932;-117.130;2023-02-28T09:54:27;1.55;;;0.45;;
60896;SDS011;46749;32.932;-117.130;2023-02-28T09:57:01;2.78;;;0.50;;
60896;SDS011;46749;32.932;-117.130;2023-02-28T09:59:46;3.10;;;0.57;;
60896;SDS011;46749;32.932;-117.130;2023-02-28T10:02:41;1.75;;;0.45;;
60896;SDS011;46749;32.932;-117.130;2023-02-28T10:05:38;0.90;;;0.50;;
60896;SDS011;46749;32.932;-117.130;2023-02-28T10:08:19;1.35;;;0.60;;
60896;SDS011;46749;32.932;-117.130;2023-02-28T10:10:53;1.30;;;0.45;;
60896;SDS011;46749;32.932;-117.130;2023-02-28T10:16:12;1.75;;;0.60;;
60896;SDS011;46749;32.932;-117.130;2023-02-28T10:18:46;2.28;;;0.70;;
60896;SDS011;46749;32.932;-117.130;2023-02-28T10:21:18;1.15;;;0.50;;
60896;SDS011;46749;32.932;-117.130;2023-02-28T10:23:47;1.35;;;0.55;;
60896;SDS011;46749;32.932;-117.130;2023-02-28T10:26:16;0.90;;;0.40;;
60896;SDS011;46749;32.932;-117.130;2023-02-28T10:28:43;1.13;;;0.40;;
60896;SDS011;46749;32.932;-117.130;2023-02-28T10:31:18;0.80;;;0.40;;
60896;SDS011;46749;32.932;-117.130;2023-02-28T10:33:45;1.20;;;0.70;;
60896;SDS011;46749;32.932;-117.130;2023-02-28T10:36:16;1.42;;;0.50;;
60896;SDS011;46749;32.932;-117.130;2023-02-28T10:38:45;1.08;;;0.43;;
60896;SDS011;46749;32.932;-117.130;2023-02-28T10:41:16;1.05;;;0.50;;
60896;SDS011;46749;32.932;-117.130;2023-02-28T10:43:53;1.17;;;0.50;;
60896;SDS011;46749;32.932;-117.130;2023-02-28T10:46:45;0.75;;;0.40;;
60896;SDS011;46749;32.932;-117.130;2023-02-28T10:49:17;1.83;;;0.50;;
60896;SDS011;46749;32.932;-117.130;2023-02-28T10:51:57;2.45;;;0.65;;
60896;SDS011;46749;32.932;-117.130;2023-02-28T10:54:31;2.35;;;0.70;;
60896;SDS011;46749;32.932;-117.130;2023-02-28T10:57:19;1.25;;;0.60;;
60896;SDS011;46749;32.932;-117.130;2023-02-28T11:02:32;1.38;;;0.52;;
60896;SDS011;46749;32.932;-117.130;2023-02-28T11:05:00;1.65;;;0.70;;
60896;SDS011;46749;32.932;-117.130;2023-02-28T11:07:27;1.48;;;0.60;;
60896;SDS011;46749;32.932;-117.130;2023-02-28T11:09:54;1.33;;;0.40;;
60896;SDS011;46749;32.932;-117.130;2023-02-28T11:14:52;1.67;;;0.43;;
60896;SDS011;46749;32.932;-117.130;2023-02-28T11:17:27;1.30;;;0.40;;
60896;SDS011;46749;32.932;-117.130;2023-02-28T11:20:00;0.95;;;0.40;;
60896;SDS011;46749;32.932;-117.130;2023-02-28T11:22:33;1.67;;;0.50;;
60896;SDS011;46749;32.932;-117.130;2023-02-28T11:25:07;2.53;;;0.52;;
60896;SDS011;46749;32.932;-117.130;2023-02-28T11:27:49;2.70;;;0.60;;
60896;SDS011;46749;32.932;-117.130;2023-02-28T11:30:31;3.42;;;0.60;;
60896;SDS011;46749;32.932;-117.130;2023-02-28T11:33:22;2.22;;;0.47;;
60896;SDS011;46749;32.932;-117.130;2023-02-28T11:35:49;2.83;;;0.50;;
60896;SDS011;46749;32.932;-117.130;2023-02-28T11:38:16;1.75;;;0.75;;
60896;SDS011;46749;32.932;-117.130;2023-02-28T11:40:56;2.95;;;0.47;;
60896;SDS011;46749;32.932;-117.130;2023-02-28T11:46:33;1.33;;;0.55;;
60896;SDS011;46749;32.932;-117.130;2023-02-28T11:49:35;1.55;;;0.60;;
60896;SDS011;46749;32.932;-117.130;2023-02-28T12:00:31;3.50;;;0.50;;
60896;SDS011;46749;32.932;-117.130;2023-02-28T12:05:55;1.00;;;0.52;;
60896;SDS011;46749;32.932;-117.130;2023-02-28T12:08:47;1.95;;;0.50;;
60896;SDS011;46749;32.932;-117.130;2023-02-28T12:14:28;2.13;;;0.80;;
60896;SDS011;46749;32.932;-117.130;2023-02-28T12:17:13;1.52;;;0.52;;
60896;SDS011;46749;32.932;-117.130;2023-02-28T12:20:08;3.40;;;0.70;;
60896;SDS011;46749;32.932;-117.130;2023-02-28T12:26:27;4.10;;;1.05;;
60896;SDS011;46749;32.932;-117.130;2023-02-28T12:28:47;3.65;;;0.73;;
60896;SDS011;46749;32.932;-117.130;2023-02-28T12:31:25;1.63;;;0.50;;
60896;SDS011;46749;32.932;-117.130;2023-02-28T12:34:16;1.98;;;0.70;;
60896;SDS011;46749;32.932;-117.130;2023-02-28T12:36:51;2.08;;;0.70;;
60896;SDS011;46749;32.932;-117.130;2023-02-28T12:39:33;1.35;;;0.50;;
60896;SDS011;46749;32.932;-117.130;2023-02-28T12:42:10;1.70;;;0.50;;
60896;SDS011;46749;32.932;-117.130;2023-02-28T12:45:04;1.70;;;0.60;;
60896;SDS011;46749;32.932;-117.130;2023-02-28T12:47:36;1.08;;;0.45;;
60896;SDS011;46749;32.932;-117.130;2023-02-28T12:50:09;1.98;;;0.60;;
60896;SDS011;46749;32.932;-117.130;2023-02-28T12:55:12;2.65;;;0.60;;
60896;SDS011;46749;32.932;-117.130;2023-02-28T13:00:44;2.38;;;0.90;;
60896;SDS011;46749;32.932;-117.130;2023-02-28T13:06:34;1.30;;;0.50;;
60896;SDS011;46749;32.932;-117.130;2023-02-28T13:09:26;1.90;;;0.65;;
60896;SDS011;46749;32.932;-117.130;2023-02-28T13:11:54;1.88;;;0.75;;
60896;SDS011;46749;32.932;-117.130;2023-02-28T13:14:23;1.52;;;0.70;;
60896;SDS011;46749;32.932;-117.130;2023-02-28T13:17:19;1.42;;;0.68;;
60896;SDS011;46749;32.932;-117.130;2023-02-28T13:28:02;2.47;;;0.75;;
60896;SDS011;46749;32.932;-117.130;2023-02-28T13:34:04;3.70;;;0.77;;
60896;SDS011;46749;32.932;-117.130;2023-02-28T13:38:55;2.38;;;0.80;;
60896;SDS011;46749;32.932;-117.130;2023-02-28T13:44:04;1.90;;;0.88;;
60896;SDS011;46749;32.932;-117.130;2023-02-28T13:46:34;2.20;;;0.73;;
60896;SDS011;46749;32.932;-117.130;2023-02-28T13:49:26;2.05;;;0.60;;
60896;SDS011;46749;32.932;-117.130;2023-02-28T13:57:24;4.28;;;0.88;;
60896;SDS011;46749;32.932;-117.130;2023-02-28T14:00:13;1.85;;;0.80;;
60896;SDS011;46749;32.932;-117.130;2023-02-28T14:05:34;3.53;;;0.73;;
60896;SDS011;46749;32.932;-117.130;2023-02-28T14:08:05;3.70;;;0.90;;
60896;SDS011;46749;32.932;-117.130;2023-02-28T14:10:48;2.80;;;0.88;;
60896;SDS011;46749;32.932;-117.130;2023-02-28T14:16:16;2.05;;;0.73;;
60896;SDS011;46749;32.932;-117.130;2023-02-28T14:18:56;3.70;;;1.10;;
60896;SDS011;46749;32.932;-117.130;2023-02-28T14:21:24;3.80;;;0.90;;
60896;SDS011;46749;32.932;-117.130;2023-02-28T14:30:13;2.45;;;0.95;;
60896;SDS011;46749;32.932;-117.130;2023-02-28T14:38:52;2.83;;;0.90;;
60896;SDS011;46749;32.932;-117.130;2023-02-28T14:41:28;4.72;;;1.00;;
60896;SDS011;46749;32.932;-117.130;2023-02-28T14:46:45;2.40;;;0.93;;
60896;SDS011;46749;32.932;-117.130;2023-02-28T14:51:47;2.17;;;1.05;;
60896;SDS011;46749;32.932;-117.130;2023-02-28T14:54:26;3.08;;;1.08;;
60896;SDS011;46749;32.932;-117.130;2023-02-28T14:56:54;2.88;;;1.08;;
60896;SDS011;46749;32.932;-117.130;2023-02-28T14:59:38;4.82;;;1.48;;
60896;SDS011;46749;32.932;-117.130;2023-02-28T15:02:23;2.30;;;0.82;;
60896;SDS011;46749;32.932;-117.130;2023-02-28T15:04:54;4.65;;;1.23;;
60896;SDS011;46749;32.932;-117.130;2023-02-28T15:07:22;2.33;;;1.15;;
60896;SDS011;46749;32.932;-117.130;2023-02-28T15:13:26;3.58;;;1.27;;
60896;SDS011;46749;32.932;-117.130;2023-02-28T15:15:45;5.47;;;1.13;;
60896;SDS011;46749;32.932;-117.130;2023-02-28T15:19:00;3.72;;;1.02;;
60896;SDS011;46749;32.932;-117.130;2023-02-28T15:21:19;5.32;;;1.30;;
60896;SDS011;46749;32.932;-117.130;2023-02-28T15:24:07;3.17;;;1.15;;
60896;SDS011;46749;32.932;-117.130;2023-02-28T15:26:42;3.20;;;1.05;;
60896;SDS011;46749;32.932;-117.130;2023-02-28T15:29:13;3.00;;;1.20;;
60896;SDS011;46749;32.932;-117.130;2023-02-28T15:31:43;3.47;;;1.10;;
60896;SDS011;46749;32.932;-117.130;2023-02-28T15:34:20;3.47;;;1.25;;
60896;SDS011;46749;32.932;-117.130;2023-02-28T15:36:52;2.55;;;1.05;;
60896;SDS011;46749;32.932;-117.130;2023-02-28T15:39:19;3.35;;;1.20;;
60896;SDS011;46749;32.932;-117.130;2023-02-28T15:41:48;3.00;;;0.90;;
60896;SDS011;46749;32.932;-117.130;2023-02-28T15:44:24;2.08;;;0.63;;
60896;SDS011;46749;32.932;-117.130;2023-02-28T15:49:24;1.70;;;0.80;;
60896;SDS011;46749;32.932;-117.130;2023-02-28T15:51:51;1.38;;;0.80;;
60896;SDS011;46749;32.932;-117.130;2023-02-28T15:54:22;2.25;;;0.82;;
60896;SDS011;46749;32.932;-117.130;2023-02-28T15:56:54;2.72;;;0.90;;
60896;SDS011;46749;32.932;-117.130;2023-02-28T15:59:24;3.05;;;1.00;;
60896;SDS011;46749;32.932;-117.130;2023-02-28T16:02:55;2.15;;;0.70;;
60896;SDS011;46749;32.932;-117.130;2023-02-28T16:07:37;3.28;;;0.90;;
60896;SDS011;46749;32.932;-117.130;2023-02-28T16:10:05;2.55;;;0.60;;
60896;SDS011;46749;32.932;-117.130;2023-02-28T16:12:34;2.42;;;0.82;;
60896;SDS011;46749;32.932;-117.130;2023-02-28T16:15:05;1.40;;;0.60;;
60896;SDS011;46749;32.932;-117.130;2023-02-28T16:17:35;2.92;;;0.93;;
60896;SDS011;46749;32.932;-117.130;2023-02-28T16:20:18;1.83;;;0.70;;
60896;SDS011;46749;32.932;-117.130;2023-02-28T16:22:46;1.42;;;0.57;;
60896;SDS011;46749;32.932;-117.130;2023-02-28T16:25:13;4.35;;;0.93;;
60896;SDS011;46749;32.932;-117.130;2023-02-28T16:27:41;2.42;;;0.90;;
60896;SDS011;46749;32.932;-117.130;2023-02-28T16:30:22;2.53;;;0.93;;
60896;SDS011;46749;32.932;-117.130;2023-02-28T16:32:50;2.20;;;0.70;;
60896;SDS011;46749;32.932;-117.130;2023-02-28T16:35:18;2.78;;;0.60;;
60896;SDS011;46749;32.932;-117.130;2023-02-28T16:37:45;2.72;;;0.95;;
60896;SDS011;46749;32.932;-117.130;2023-02-28T16:40:18;1.90;;;0.60;;
60896;SDS011;46749;32.932;-117.130;2023-02-28T16:42:48;1.75;;;0.80;;
60896;SDS011;46749;32.932;-117.130;2023-02-28T16:45:20;2.50;;;0.70;;
60896;SDS011;46749;32.932;-117.130;2023-02-28T16:47:48;1.13;;;0.68;;
60896;SDS011;46749;32.932;-117.130;2023-02-28T16:52:46;1.27;;;0.68;;
60896;SDS011;46749;32.932;-117.130;2023-02-28T16:55:14;2.38;;;0.60;;
60896;SDS011;46749;32.932;-117.130;2023-02-28T16:57:41;4.80;;;0.68;;
60896;SDS011;46749;32.932;-117.130;2023-02-28T17:00:11;4.75;;;0.88;;